createdAt,value
2022-08-18T00:02:05.378Z,24.95
2022-08-18T00:04:35.976Z,24.93
2022-08-18T00:07:03.975Z,24.91
2022-08-18T00:09:32.845Z,24.89
2022-08-18T00:12:02.213Z,24.88
2022-08-18T00:14:29.253Z,24.87
2022-08-18T00:16:56.082Z,24.84
2022-08-18T00:19:45.635Z,24.81
2022-08-18T00:22:15.336Z,24.78
2022-08-18T00:24:47.486Z,24.75
2022-08-18T00:27:17.405Z,24.74
2022-08-18T00:29:45.007Z,24.71
2022-08-18T00:32:38.567Z,24.68
2022-08-18T00:35:18.479Z,24.65
2022-08-18T00:37:45.318Z,24.59
2022-08-18T00:40:16.858Z,24.58
2022-08-18T00:42:51.006Z,24.54
2022-08-18T00:45:23.295Z,24.51
2022-08-18T00:47:50.016Z,24.47
2022-08-18T00:50:22.337Z,24.44
2022-08-18T00:52:57.721Z,24.45
2022-08-18T00:55:24.844Z,24.41
2022-08-18T00:57:56.034Z,24.40
2022-08-18T01:00:23.103Z,24.36
2022-08-18T01:02:53.458Z,24.32
2022-08-18T01:05:28.322Z,24.28
2022-08-18T01:07:55.163Z,24.28
2022-08-18T01:10:23.371Z,24.23
2022-08-18T01:12:52.974Z,24.22
2022-08-18T01:15:28.814Z,24.20
2022-08-18T01:18:19.790Z,24.19
2022-08-18T01:21:14.403Z,24.16
2022-08-18T01:23:41.098Z,24.14
2022-08-18T01:26:09.542Z,24.15
2022-08-18T01:28:39.761Z,24.14
2022-08-18T01:31:07.823Z,24.13
2022-08-18T01:33:37.231Z,24.10
2022-08-18T01:36:16.872Z,24.12
2022-08-18T01:38:45.974Z,24.12
2022-08-18T01:41:28.587Z,24.12
2022-08-18T01:43:57.441Z,24.09
2022-08-18T01:46:24.587Z,24.12
2022-08-18T01:48:52.404Z,24.11
2022-08-18T01:51:20.681Z,24.12
2022-08-18T01:54:07.891Z,24.11
2022-08-18T01:56:34.599Z,24.09
2022-08-18T01:59:01.292Z,24.10
2022-08-18T02:01:32.991Z,24.10
2022-08-18T02:04:30.990Z,24.01
2022-08-18T02:06:51.161Z,24.04
2022-08-18T02:09:24.121Z,24.04
2022-08-18T02:11:55.785Z,23.98
2022-08-18T02:14:24.999Z,23.93
2022-08-18T02:16:53.724Z,23.92
2022-08-18T02:19:28.313Z,23.87
2022-08-18T02:21:55.020Z,23.87
2022-08-18T02:24:21.800Z,23.84
2022-08-18T02:26:48.597Z,23.80
2022-08-18T02:29:15.401Z,23.75
2022-08-18T02:31:42.066Z,23.74
2022-08-18T02:34:08.822Z,23.70
2022-08-18T02:36:35.520Z,23.61
2022-08-18T02:39:02.309Z,23.62
2022-08-18T02:41:29.671Z,23.57
2022-08-18T02:43:57.426Z,23.54
2022-08-18T02:46:24.155Z,23.49
2022-08-18T02:48:57.213Z,23.46
2022-08-18T02:51:25.846Z,23.45
2022-08-18T02:53:53.869Z,23.42
2022-08-18T02:56:32.856Z,23.37
2022-08-18T02:59:13.896Z,23.32
2022-08-18T03:01:43.814Z,23.32
2022-08-18T03:04:14.389Z,23.28
2022-08-18T03:06:41.757Z,23.25
2022-08-18T03:09:10.352Z,23.22
2022-08-18T03:11:37.795Z,23.20
2022-08-18T03:14:05.699Z,23.18
2022-08-18T03:16:33.454Z,23.15
2022-08-18T03:19:01.320Z,23.11
2022-08-18T03:21:35.073Z,23.09
2022-08-18T03:24:03.012Z,23.06
2022-08-18T03:26:41.860Z,23.02
2022-08-18T03:29:09.428Z,23.00
2022-08-18T03:31:39.312Z,22.99
2022-08-18T03:34:07.272Z,22.95
2022-08-18T03:36:37.066Z,22.93
2022-08-18T03:39:09.233Z,22.90
2022-08-18T03:41:57.564Z,22.87
2022-08-18T03:44:25.519Z,22.86
2022-08-18T03:46:52.362Z,22.83
2022-08-18T03:49:20.907Z,22.81
2022-08-18T03:51:48.863Z,22.77
2022-08-18T03:54:17.854Z,22.78
2022-08-18T03:56:45.772Z,22.76
2022-08-18T03:59:24.018Z,22.73
2022-08-18T04:01:52.627Z,22.69
2022-08-18T04:04:25.937Z,22.64
2022-08-18T04:06:58.700Z,22.69
2022-08-18T04:09:28.053Z,22.69
2022-08-18T04:11:55.537Z,22.64
2022-08-18T04:14:25.089Z,22.67
2022-08-18T04:16:52.675Z,22.68
2022-08-18T04:19:25.157Z,22.72
2022-08-18T04:21:54.622Z,22.71
2022-08-18T04:24:21.403Z,22.67
2022-08-18T04:26:48.583Z,22.69
2022-08-18T04:29:17.311Z,22.68
2022-08-18T04:31:45.468Z,22.67
2022-08-18T04:34:12.566Z,22.67
2022-08-18T04:36:39.787Z,22.69
2022-08-18T04:39:08.102Z,22.72
2022-08-18T04:41:35.759Z,22.73
2022-08-18T04:44:05.363Z,22.76
2022-08-18T04:46:40.585Z,22.78
2022-08-18T04:49:08.179Z,22.79
2022-08-18T04:52:36.296Z,22.80
2022-08-18T04:54:25.068Z,22.85
2022-08-18T04:56:53.390Z,22.88
2022-08-18T04:59:20.605Z,22.90
2022-08-18T05:01:48.029Z,22.94
2022-08-18T05:04:16.780Z,23.00
2022-08-18T05:06:44.224Z,23.03
2022-08-18T05:09:12.827Z,23.11
2022-08-18T05:11:44.680Z,23.12
2022-08-18T05:14:11.792Z,23.15
2022-08-18T05:16:47.872Z,23.19
2022-08-18T05:19:23.259Z,23.23
2022-08-18T05:21:52.343Z,23.27
2022-08-18T05:24:21.594Z,23.33
2022-08-18T05:26:49.269Z,23.38
2022-08-18T05:29:18.799Z,23.43
2022-08-18T05:31:48.115Z,23.52
2022-08-18T05:34:15.591Z,23.56
2022-08-18T05:36:58.128Z,23.60
2022-08-18T05:39:32.796Z,23.66
2022-08-18T05:42:07.514Z,23.71
2022-08-18T05:44:37.388Z,23.77
2022-08-18T05:47:18.936Z,23.82
2022-08-18T05:49:49.198Z,23.89
2022-08-18T05:52:20.014Z,23.96
2022-08-18T05:55:08.456Z,24.03
2022-08-18T05:57:53.195Z,24.09
2022-08-18T06:00:23.435Z,24.20
2022-08-18T06:02:59.182Z,24.30
2022-08-18T06:05:31.947Z,24.42
2022-08-18T06:08:13.970Z,24.51
2022-08-18T06:10:49.660Z,24.60
2022-08-18T06:13:18.714Z,24.73
2022-08-18T06:16:12.386Z,24.89
2022-08-18T06:18:59.851Z,25.01
2022-08-18T06:21:51.055Z,25.12
2022-08-18T06:24:30.036Z,25.15
2022-08-18T06:27:21.635Z,25.27
2022-08-18T06:29:55.031Z,25.34
2022-08-18T06:32:36.457Z,25.33
2022-08-18T06:35:23.440Z,25.39
2022-08-18T06:38:13.077Z,25.47
2022-08-18T06:40:40.068Z,25.56
2022-08-18T06:43:10.201Z,25.68
2022-08-18T06:45:39.943Z,25.77
2022-08-18T06:48:29.458Z,25.89
2022-08-18T06:51:00.510Z,25.91
2022-08-18T06:54:03.831Z,25.96
2022-08-18T06:56:39.711Z,25.99
2022-08-18T06:59:18.697Z,25.97
2022-08-18T07:01:47.657Z,26.11
2022-08-18T07:04:41.369Z,26.09
2022-08-18T07:07:39.542Z,26.26
2022-08-18T07:10:29.606Z,26.39
2022-08-18T07:13:25.677Z,26.50
2022-08-18T07:15:54.663Z,26.51
2022-08-18T07:18:24.791Z,26.38
2022-08-18T07:20:58.087Z,26.24
2022-08-18T07:23:39.493Z,26.33
2022-08-18T07:26:15.840Z,26.50
2022-08-18T07:28:51.586Z,26.63
2022-08-18T07:31:42.323Z,26.66
2022-08-18T07:34:13.819Z,26.72
2022-08-18T07:36:53.391Z,26.65
2022-08-18T07:39:28.522Z,26.73
2022-08-18T07:42:37.154Z,26.88
2022-08-18T07:45:39.077Z,26.93
2022-08-18T07:48:40.202Z,26.93
2022-08-18T07:51:13.520Z,27.15
2022-08-18T07:54:45.422Z,27.10
2022-08-18T07:57:19.708Z,27.06
2022-08-18T07:59:47.379Z,27.19
2022-08-18T08:02:32.929Z,27.29
2022-08-18T08:05:02.693Z,27.29
2022-08-18T08:07:46.357Z,27.45
2022-08-18T08:10:31.316Z,27.50
2022-08-18T08:13:19.347Z,27.49
2022-08-18T08:16:11.334Z,27.53
2022-08-18T08:18:50.240Z,27.71
2022-08-18T08:21:22.531Z,27.68
2022-08-18T08:24:07.700Z,27.58
2022-08-18T08:26:59.021Z,27.61
2022-08-18T08:29:39.907Z,27.55
2022-08-18T08:32:22.587Z,27.74
2022-08-18T08:34:54.427Z,27.81
2022-08-18T08:37:28.436Z,27.87
2022-08-18T08:40:00.402Z,27.83
2022-08-18T08:42:56.453Z,28.04
2022-08-18T08:45:38.329Z,28.00
2022-08-18T08:48:21.513Z,28.23
2022-08-18T08:51:09.715Z,28.24
2022-08-18T08:53:48.384Z,28.13
2022-08-18T08:56:16.749Z,28.29
2022-08-18T08:58:47.688Z,28.59
2022-08-18T09:01:34.975Z,28.79
2022-08-18T09:04:22.276Z,28.84
2022-08-18T09:07:02.977Z,29.02
2022-08-18T09:10:05.679Z,29.83
2022-08-18T09:12:40.444Z,30.30
2022-08-18T09:15:28.592Z,30.89
2022-08-18T09:18:04.537Z,31.15
2022-08-18T09:21:21.803Z,31.21
2022-08-18T09:23:52.179Z,31.19
2022-08-18T09:26:49.863Z,31.81
2022-08-18T09:29:44.029Z,31.98
2022-08-18T09:32:22.935Z,31.94
2022-08-18T09:35:24.510Z,32.58
2022-08-18T09:38:20.577Z,33.00
2022-08-18T09:41:11.873Z,33.23
2022-08-18T09:43:54.782Z,33.37
2022-08-18T09:46:43.715Z,33.31
2022-08-18T09:49:22.794Z,33.05
2022-08-18T09:51:51.848Z,33.08
2022-08-18T09:54:25.113Z,33.21
2022-08-18T09:56:54.309Z,33.16
2022-08-18T09:59:35.124Z,33.49
2022-08-18T10:02:22.712Z,33.39
2022-08-18T10:05:22.758Z,33.41
2022-08-18T10:08:06.219Z,33.76
2022-08-18T10:11:00.531Z,33.79
2022-08-18T10:13:51.085Z,33.61
2022-08-18T10:16:28.800Z,33.58
2022-08-18T10:19:44.669Z,33.87
2022-08-18T10:22:13.362Z,34.23
2022-08-18T10:24:55.234Z,34.59
2022-08-18T10:27:45.647Z,34.94
2022-08-18T10:30:39.941Z,35.29
2022-08-18T10:33:58.469Z,35.39
2022-08-18T10:36:45.198Z,35.83
2022-08-18T10:39:45.699Z,36.03
2022-08-18T10:42:22.884Z,36.00
2022-08-18T10:44:52.693Z,36.38
2022-08-18T10:47:33.609Z,36.58
2022-08-18T10:50:05.281Z,36.51
2022-08-18T10:53:17.085Z,37.00
2022-08-18T10:55:53.042Z,37.39
2022-08-18T10:58:51.738Z,37.63
2022-08-18T11:01:38.686Z,38.00
2022-08-18T11:04:33.905Z,38.13
2022-08-18T11:07:09.464Z,37.99
2022-08-18T11:09:41.761Z,37.87
2022-08-18T11:12:12.000Z,37.24
2022-08-18T11:15:22.642Z,37.63
2022-08-18T11:17:54.083Z,38.43
2022-08-18T11:20:21.966Z,39.13
2022-08-18T11:23:00.406Z,39.63
2022-08-18T11:25:33.882Z,40.27
2022-08-18T11:28:01.654Z,40.84
2022-08-18T11:30:37.104Z,41.20
2022-08-18T11:33:04.916Z,41.47
2022-08-18T11:35:44.733Z,41.70
2022-08-18T11:41:23.362Z,42.03
2022-08-18T11:43:56.759Z,42.62
2022-08-18T11:46:31.520Z,43.12
2022-08-18T11:49:01.397Z,43.10
2022-08-18T11:51:32.519Z,43.09
2022-08-18T11:54:24.624Z,42.59
2022-08-18T11:56:52.053Z,41.88
2022-08-18T12:02:17.644Z,40.46
2022-08-18T12:04:44.934Z,39.83
2022-08-18T12:07:14.985Z,39.32
2022-08-18T12:10:15.979Z,38.75
2022-08-18T12:13:00.889Z,38.38
2022-08-18T12:18:28.754Z,37.78
2022-08-18T12:21:01.745Z,37.76
2022-08-18T12:23:38.828Z,37.37
2022-08-18T12:26:27.250Z,37.37
2022-08-18T12:29:11.167Z,37.98
2022-08-18T12:34:28.661Z,39.44
2022-08-18T12:36:57.907Z,39.44
2022-08-18T12:39:25.218Z,39.09
2022-08-18T12:41:52.267Z,39.33
2022-08-18T12:44:19.083Z,39.68
2022-08-18T12:46:47.487Z,39.91
2022-08-18T12:49:25.441Z,39.70
2022-08-18T12:51:55.786Z,39.90
2022-08-18T12:54:23.002Z,40.28
2022-08-18T12:56:54.250Z,40.04
2022-08-18T12:59:21.135Z,39.77
2022-08-18T13:01:51.333Z,39.12
2022-08-18T13:04:26.805Z,39.65
2022-08-18T13:07:00.443Z,39.71
2022-08-18T13:09:35.089Z,39.61
2022-08-18T13:12:16.610Z,39.70
2022-08-18T13:14:44.588Z,39.90
2022-08-18T13:17:30.020Z,39.88
2022-08-18T13:20:00.795Z,40.05
2022-08-18T13:22:32.023Z,40.29
2022-08-18T13:25:01.400Z,40.34
2022-08-18T13:27:33.134Z,39.97
2022-08-18T13:30:03.740Z,39.55
2022-08-18T13:32:58.822Z,39.21
2022-08-18T13:35:29.918Z,38.74
2022-08-18T13:38:14.595Z,38.54
2022-08-18T13:40:48.613Z,38.26
2022-08-18T13:43:17.734Z,38.18
2022-08-18T13:45:52.949Z,38.01
2022-08-18T13:48:20.008Z,37.75
2022-08-18T13:50:47.177Z,37.65
2022-08-18T13:53:19.929Z,37.54
2022-08-18T13:55:47.767Z,37.48
2022-08-18T13:58:17.578Z,37.36
2022-08-18T14:00:54.412Z,37.22
2022-08-18T14:03:42.359Z,36.99
2022-08-18T14:06:13.121Z,36.75
2022-08-18T14:08:40.885Z,36.69
2022-08-18T14:11:08.571Z,36.70
2022-08-18T14:13:38.082Z,36.70
2022-08-18T14:16:10.599Z,36.58
2022-08-18T14:18:37.386Z,36.74
2022-08-18T14:21:24.527Z,36.83
2022-08-18T14:24:14.207Z,36.84
2022-08-18T14:26:51.238Z,36.78
2022-08-18T14:29:45.634Z,36.84
2022-08-18T14:32:07.296Z,36.62
2022-08-18T14:34:34.749Z,36.61
2022-08-18T14:37:03.648Z,36.58
2022-08-18T14:39:30.506Z,36.47
2022-08-18T14:41:58.680Z,36.30
2022-08-18T14:44:31.822Z,36.23
2022-08-18T14:46:59.740Z,36.08
2022-08-18T14:49:29.410Z,35.97
2022-08-18T14:52:00.651Z,35.93
2022-08-18T14:54:28.697Z,35.93
2022-08-18T14:56:58.315Z,35.74
2022-08-18T14:59:25.627Z,35.62
2022-08-18T15:01:53.390Z,35.44
2022-08-18T15:04:21.186Z,35.27
2022-08-18T15:06:55.634Z,35.24
2022-08-18T15:09:23.422Z,35.11
2022-08-18T15:11:51.242Z,35.01
2022-08-18T15:14:21.487Z,35.06
2022-08-18T15:17:13.270Z,35.10
2022-08-18T15:19:59.689Z,34.84
2022-08-18T15:22:46.439Z,34.82
2022-08-18T15:25:47.204Z,34.69
2022-08-18T15:28:23.717Z,34.64
2022-08-18T15:31:16.609Z,34.40
2022-08-18T15:33:39.310Z,34.31
2022-08-18T15:36:09.967Z,34.31
2022-08-18T15:38:37.147Z,34.13
2022-08-18T15:41:06.299Z,33.97
2022-08-18T15:43:45.796Z,33.89
2022-08-18T15:46:16.746Z,33.88
2022-08-18T15:48:46.408Z,33.68
2022-08-18T15:51:13.322Z,33.56
2022-08-18T15:53:44.812Z,33.60
2022-08-18T15:56:25.830Z,33.49
2022-08-18T15:58:52.869Z,33.36
2022-08-18T16:01:32.275Z,33.27
2022-08-18T16:04:01.432Z,33.30
2022-08-18T16:06:32.199Z,33.37
2022-08-18T16:08:59.622Z,33.08
2022-08-18T16:11:29.457Z,33.16
2022-08-18T16:13:59.113Z,33.14
2022-08-18T16:16:29.253Z,33.24
2022-08-18T16:19:05.220Z,33.15
2022-08-18T16:21:32.037Z,33.15
2022-08-18T16:23:59.019Z,33.08
2022-08-18T16:26:25.849Z,32.98
2022-08-18T16:28:53.070Z,33.00
2022-08-18T16:31:25.146Z,33.02
2022-08-18T16:33:56.349Z,32.54
2022-08-18T16:36:25.850Z,32.60
2022-08-18T16:38:58.034Z,32.66
2022-08-18T16:41:26.683Z,32.52
2022-08-18T16:43:53.570Z,32.47
2022-08-18T16:46:26.343Z,32.44
2022-08-18T16:48:58.007Z,32.32
2022-08-18T16:51:27.109Z,32.30
2022-08-18T16:53:54.633Z,31.92
2022-08-18T16:56:26.688Z,31.50
2022-08-18T16:59:13.196Z,31.36
2022-08-18T17:01:59.161Z,31.06
2022-08-18T17:04:29.050Z,31.10
2022-08-18T17:06:56.961Z,30.96
2022-08-18T17:09:23.984Z,30.38
2022-08-18T17:11:52.466Z,30.56
2022-08-18T17:14:24.800Z,30.60
2022-08-18T17:16:55.212Z,30.63
2022-08-18T17:19:28.124Z,30.63
2022-08-18T17:21:54.857Z,30.49
2022-08-18T17:24:32.267Z,30.18
2022-08-18T17:27:27.250Z,30.16
2022-08-18T17:29:54.436Z,29.81
2022-08-18T17:32:26.058Z,29.83
2022-08-18T17:35:00.976Z,29.88
2022-08-18T17:37:31.190Z,29.72
2022-08-18T17:40:04.211Z,29.79
2022-08-18T17:42:32.120Z,29.91
2022-08-18T17:45:08.210Z,29.91
2022-08-18T17:47:59.862Z,29.71
2022-08-18T17:50:55.296Z,29.23
2022-08-18T17:53:22.635Z,29.05
2022-08-18T17:56:00.083Z,29.08
2022-08-18T17:58:38.158Z,29.06
2022-08-18T18:01:05.525Z,29.04
2022-08-18T18:03:34.173Z,28.95
2022-08-18T18:06:32.260Z,28.91
2022-08-18T18:09:02.247Z,28.87
2022-08-18T18:11:35.177Z,28.84
2022-08-18T18:14:34.100Z,28.80
2022-08-18T18:17:14.591Z,28.54
2022-08-18T18:19:48.094Z,28.30
2022-08-18T18:22:27.385Z,28.50
2022-08-18T18:24:56.295Z,28.54
2022-08-18T18:27:27.049Z,28.45
2022-08-18T18:30:07.340Z,28.45
2022-08-18T18:32:38.633Z,28.49
2022-08-18T18:35:34.138Z,28.42
2022-08-18T18:38:04.356Z,28.37
2022-08-18T18:40:57.526Z,28.36
2022-08-18T18:43:27.262Z,28.40
2022-08-18T18:46:08.012Z,27.86
2022-08-18T18:49:01.680Z,28.00
2022-08-18T18:51:53.009Z,28.04
2022-08-18T18:54:44.202Z,28.11
2022-08-18T18:57:30.279Z,27.99
2022-08-18T19:00:16.830Z,27.90
2022-08-18T19:02:53.696Z,27.61
2022-08-18T19:05:38.837Z,27.81
2022-08-18T19:08:28.470Z,27.84
2022-08-18T19:11:05.486Z,27.66
2022-08-18T19:13:37.293Z,27.81
2022-08-18T19:16:29.059Z,27.81
2022-08-18T19:19:38.335Z,27.85
2022-08-18T19:22:05.563Z,27.89
2022-08-18T19:24:38.919Z,27.75
2022-08-18T19:27:07.751Z,27.78
2022-08-18T19:29:42.793Z,27.85
2022-08-18T19:32:17.146Z,27.82
2022-08-18T19:34:51.340Z,27.70
2022-08-18T19:37:30.961Z,27.64
2022-08-18T19:40:37.254Z,27.75
2022-08-18T19:43:13.216Z,27.78
2022-08-18T19:45:46.896Z,27.80
2022-08-18T19:48:35.010Z,27.77
2022-08-18T19:51:08.493Z,27.75
2022-08-18T19:53:59.074Z,27.43
2022-08-18T19:56:25.753Z,27.51
2022-08-18T19:59:34.984Z,27.49
2022-08-18T20:02:40.263Z,27.48
2022-08-18T20:05:39.075Z,27.43
2022-08-18T20:08:27.393Z,27.39
2022-08-18T20:10:54.194Z,27.45
2022-08-18T20:13:33.086Z,27.45
2022-08-18T20:16:02.961Z,27.47
2022-08-18T20:18:34.620Z,27.49
2022-08-18T20:21:16.847Z,27.54
2022-08-18T20:23:56.311Z,27.25
2022-08-18T20:26:35.302Z,27.27
2022-08-18T20:29:02.453Z,27.19
2022-08-18T20:31:53.605Z,27.33
2022-08-18T20:34:23.785Z,27.22
2022-08-18T20:36:52.074Z,26.91
2022-08-18T20:39:42.156Z,26.93
2022-08-18T20:42:37.555Z,26.56
2022-08-18T20:45:12.594Z,26.60
2022-08-18T20:48:03.679Z,26.50
2022-08-18T20:50:54.386Z,26.39
2022-08-18T20:53:24.095Z,26.22
2022-08-18T20:56:32.517Z,26.16
2022-08-18T20:59:30.603Z,26.14
2022-08-18T21:02:06.211Z,26.01
2022-08-18T21:04:50.534Z,25.95
2022-08-18T21:07:36.178Z,25.91
2022-08-18T21:10:24.592Z,25.90
2022-08-18T21:12:54.306Z,25.86
2022-08-18T21:15:31.188Z,25.82
2022-08-18T21:17:59.709Z,25.77
2022-08-18T21:20:27.390Z,25.77
2022-08-18T21:23:12.302Z,25.74
2022-08-18T21:25:56.749Z,25.70
2022-08-18T21:28:26.664Z,25.69
2022-08-18T21:31:42.510Z,25.71
2022-08-18T21:33:56.066Z,25.67
2022-08-18T21:36:25.666Z,25.66
2022-08-18T21:39:05.224Z,25.46
2022-08-18T21:41:34.491Z,25.43
2022-08-18T21:44:07.571Z,25.46
2022-08-18T21:46:34.662Z,25.39
2022-08-18T21:49:02.796Z,25.40
2022-08-18T21:51:38.491Z,25.37
2022-08-18T21:54:05.678Z,25.36
2022-08-18T21:56:34.630Z,25.29
2022-08-18T21:59:14.007Z,25.25
2022-08-18T22:01:58.028Z,25.16
2022-08-18T22:04:35.968Z,25.10
2022-08-18T22:07:06.243Z,25.13
2022-08-18T22:10:20.790Z,25.14
2022-08-18T22:13:14.392Z,25.11
2022-08-18T22:15:42.684Z,25.07
2022-08-18T22:18:18.513Z,25.04
2022-08-18T22:20:51.190Z,24.97
2022-08-18T22:23:43.507Z,24.93
2022-08-18T22:26:16.363Z,24.93
2022-08-18T22:29:13.400Z,24.86
2022-08-18T22:31:48.885Z,24.84
2022-08-18T22:34:26.991Z,24.80
2022-08-18T22:37:00.982Z,24.78
2022-08-18T22:39:35.532Z,24.79
2022-08-18T22:42:03.821Z,24.78
2022-08-18T22:44:30.577Z,24.80
2022-08-18T22:46:57.271Z,24.83
2022-08-18T22:49:24.404Z,24.79
2022-08-18T22:51:53.389Z,24.81
2022-08-18T22:54:20.645Z,24.76
2022-08-18T22:56:53.840Z,24.73
2022-08-18T22:59:23.685Z,24.72
2022-08-18T23:01:51.316Z,24.69
2022-08-18T23:04:20.864Z,24.67
2022-08-18T23:06:54.117Z,24.66
2022-08-18T23:09:29.720Z,24.62
2022-08-18T23:11:59.386Z,24.64
2022-08-18T23:14:26.131Z,24.64
2022-08-18T23:16:52.866Z,24.59
2022-08-18T23:19:20.838Z,24.54
2022-08-18T23:21:48.740Z,24.58
2022-08-18T23:24:17.566Z,24.39
2022-08-18T23:26:44.800Z,24.48
2022-08-18T23:29:12.761Z,24.48
2022-08-18T23:31:40.946Z,24.51
2022-08-18T23:34:08.366Z,24.49
2022-08-18T23:36:41.273Z,24.50
2022-08-18T23:39:10.726Z,24.49
2022-08-18T23:41:38.425Z,24.44
2022-08-18T23:44:06.696Z,24.48
2022-08-18T23:46:33.919Z,24.45
2022-08-18T23:49:02.681Z,24.47
2022-08-18T23:51:35.161Z,24.39
2022-08-18T23:54:05.259Z,24.35
2022-08-18T23:56:32.734Z,24.31
2022-08-18T23:59:00.085Z,24.25
